Time;durP1;ratioP1;P1;durP2;ratioP2;P2;SDS_P1;SDS_P2;PMS_P1;PMS_P2;Temp;Humidity;BMP_temperature;BMP_pressure;BME280_temperature;BME280_humidity;BME280_pressure;Samples;Min_cycle;Max_cycle;Signal;HPM_P1;HPM_P2
2022/08/26 00:00:03;;;;;;;2.00;0.52;;;15.10;99.90;;;;;;5046774;28;20202;-67
2022/08/26 00:02:34;;;;;;;3.17;0.90;;;15.10;99.90;;;;;;5049985;28;20189;-68
2022/08/26 00:05:05;;;;;;;2.28;0.90;;;15.20;99.90;;;;;;5047972;28;20198;-72
2022/08/26 00:07:36;;;;;;;2.92;0.70;;;15.40;99.90;;;;;;5051041;28;20209;-70
2022/08/26 00:10:07;;;;;;;4.13;0.82;;;15.60;99.90;;;;;;5050053;28;20197;-71
2022/08/26 00:12:38;;;;;;;1.02;0.40;;;15.80;99.90;;;;;;5048248;28;20193;-68
2022/08/26 00:15:13;;;;;;;1.98;0.50;;;15.90;99.90;;;;;;5044808;28;20200;-68
2022/08/26 00:17:43;;;;;;;6.07;0.80;;;16.20;99.90;;;;;;5048018;28;20209;-67
2022/08/26 00:20:15;;;;;;;5.93;1.02;;;16.20;99.90;;;;;;5049592;28;20204;-72
2022/08/26 00:22:46;;;;;;;2.67;0.60;;;16.40;99.90;;;;;;5047617;28;20202;-67
2022/08/26 00:25:17;;;;;;;2.28;0.40;;;16.30;99.90;;;;;;5050511;28;20209;-73
2022/08/26 00:27:48;;;;;;;4.05;0.93;;;16.20;99.90;;;;;;5050096;28;20540;-68
2022/08/26 00:30:23;;;;;;;2.33;0.82;;;16.10;99.90;;;;;;5046102;28;20569;-68
2022/08/26 00:32:54;;;;;;;3.63;0.70;;;16.10;99.90;;;;;;5043034;28;20197;-69
2022/08/26 00:35:25;;;;;;;3.92;1.17;;;16.10;99.90;;;;;;5051107;28;20204;-68
2022/08/26 00:37:57;;;;;;;5.10;0.80;;;16.10;99.90;;;;;;5052026;28;20208;-67
2022/08/26 00:40:30;;;;;;;2.33;0.70;;;16.20;99.90;;;;;;5048501;28;20240;-68
2022/08/26 00:43:01;;;;;;;3.58;0.77;;;16.20;99.90;;;;;;5051788;28;20194;-67
2022/08/26 00:45:40;;;;;;;4.75;0.60;;;16.30;99.90;;;;;;5050772;28;20208;-68
2022/08/26 00:48:12;;;;;;;1.98;0.50;;;16.30;99.90;;;;;;5045953;28;20649;-68
2022/08/26 00:50:54;;;;;;;4.57;0.70;;;16.40;99.90;;;;;;5049005;28;20194;-68
2022/08/26 00:53:28;;;;;;;2.92;0.80;;;16.40;99.90;;;;;;5048512;28;20201;-67
2022/08/26 00:56:02;;;;;;;2.92;0.88;;;16.40;99.90;;;;;;5050176;28;20221;-67
2022/08/26 00:58:35;;;;;;;7.00;0.90;;;16.60;99.90;;;;;;5042820;28;20215;-70
2022/08/26 01:01:08;;;;;;;4.78;0.60;;;16.60;99.90;;;;;;5043724;28;20194;-69
2022/08/26 01:03:40;;;;;;;35.58;21.25;;;16.50;99.90;;;;;;5043799;28;20441;-67
2022/08/26 01:06:12;;;;;;;13.77;7.00;;;16.50;99.90;;;;;;5050213;28;20197;-67
2022/08/26 01:08:43;;;;;;;7.40;1.85;;;16.40;99.90;;;;;;5047431;28;20198;-67
2022/08/26 01:11:15;;;;;;;8.73;4.30;;;16.30;99.90;;;;;;5049521;28;20197;-69
2022/08/26 01:13:46;;;;;;;10.93;3.65;;;16.30;99.90;;;;;;5047353;28;20216;-74
2022/08/26 01:16:19;;;;;;;6.00;2.03;;;16.20;99.90;;;;;;5045692;28;20213;-70
2022/08/26 01:18:50;;;;;;;3.30;0.93;;;16.10;99.90;;;;;;5051326;28;20204;-70
2022/08/26 01:21:28;;;;;;;3.85;1.45;;;16.10;99.90;;;;;;5054448;28;20207;-68
2022/08/26 01:24:01;;;;;;;5.22;1.20;;;16.10;99.90;;;;;;5051690;28;20239;-71
2022/08/26 01:26:34;;;;;;;3.22;0.88;;;16.10;99.90;;;;;;5054235;28;20200;-68
2022/08/26 01:29:06;;;;;;;3.47;0.75;;;16.10;99.90;;;;;;5053046;28;20205;-72
2022/08/26 01:31:41;;;;;;;3.83;0.65;;;16.10;99.90;;;;;;5048941;28;20197;-71
2022/08/26 01:34:17;;;;;;;4.22;0.90;;;16.10;99.90;;;;;;5053061;28;20655;-70
2022/08/26 01:36:49;;;;;;;4.43;0.85;;;16.20;99.90;;;;;;5053017;28;20213;-72
2022/08/26 01:39:22;;;;;;;2.05;0.60;;;16.20;99.90;;;;;;5053158;28;20229;-72
2022/08/26 01:41:56;;;;;;;3.38;0.90;;;16.30;99.90;;;;;;5053932;28;20208;-69
2022/08/26 01:44:30;;;;;;;2.92;0.40;;;16.50;99.90;;;;;;5055102;28;20189;-72
2022/08/26 01:47:03;;;;;;;1.15;0.57;;;16.60;99.90;;;;;;5051948;28;20653;-68
2022/08/26 01:49:35;;;;;;;3.33;0.80;;;16.60;99.90;;;;;;5052327;28;20543;-67
2022/08/26 01:52:09;;;;;;;1.33;0.57;;;16.60;99.90;;;;;;5054692;28;20204;-70
2022/08/26 01:54:42;;;;;;;4.47;0.68;;;16.70;99.90;;;;;;5049621;28;20201;-68
2022/08/26 01:57:14;;;;;;;3.67;0.50;;;16.80;99.90;;;;;;5054193;28;20229;-77
2022/08/26 01:59:45;;;;;;;4.30;0.50;;;16.60;99.90;;;;;;5053294;28;20201;-68
2022/08/26 02:02:16;;;;;;;3.55;0.52;;;16.40;99.90;;;;;;5052856;28;20542;-69
2022/08/26 02:04:51;;;;;;;1.83;0.60;;;16.40;99.90;;;;;;5054161;28;20205;-72
2022/08/26 02:07:23;;;;;;;2.90;0.50;;;16.30;99.90;;;;;;5050095;28;20204;-69
2022/08/26 02:09:55;;;;;;;2.83;0.50;;;16.30;99.90;;;;;;5050559;28;20559;-75
2022/08/26 02:12:27;;;;;;;5.63;0.60;;;16.30;99.90;;;;;;5053835;28;20193;-72
2022/08/26 02:15:01;;;;;;;4.65;1.00;;;16.40;99.90;;;;;;5054700;28;20233;-71
2022/08/26 02:17:38;;;;;;;2.30;0.50;;;16.60;99.90;;;;;;5046803;28;20675;-68
2022/08/26 02:20:10;;;;;;;3.53;0.60;;;16.70;99.90;;;;;;5054118;28;20185;-71
2022/08/26 02:22:41;;;;;;;2.08;0.40;;;16.80;99.90;;;;;;5054602;28;20182;-72
2022/08/26 02:25:22;;;;;;;2.08;0.57;;;16.80;99.90;;;;;;5052981;28;20204;-72
2022/08/26 02:27:55;;;;;;;3.17;0.47;;;16.80;99.90;;;;;;5053953;28;20225;-69
2022/08/26 02:30:28;;;;;;;2.33;0.50;;;16.80;99.90;;;;;;5053913;28;20277;-69
2022/08/26 02:33:02;;;;;;;5.15;0.68;;;16.80;99.90;;;;;;5053431;28;20208;-77
2022/08/26 02:35:34;;;;;;;3.35;0.45;;;16.70;99.90;;;;;;5054262;28;20181;-71
2022/08/26 02:38:05;;;;;;;3.55;0.77;;;16.70;99.90;;;;;;5047310;28;20301;-69
2022/08/26 02:40:39;;;;;;;2.70;0.50;;;16.60;99.90;;;;;;5050088;28;20232;-73
2022/08/26 02:43:11;;;;;;;2.53;0.43;;;16.60;99.90;;;;;;5051928;28;20197;-70
2022/08/26 02:45:42;;;;;;;2.97;0.70;;;16.50;99.90;;;;;;5045034;28;20190;-70
2022/08/26 02:48:16;;;;;;;3.22;0.68;;;16.40;99.90;;;;;;5050604;28;20186;-76
2022/08/26 02:50:46;;;;;;;6.03;0.57;;;16.30;99.90;;;;;;5048572;28;20222;-72
2022/08/26 02:53:17;;;;;;;1.58;0.50;;;16.20;99.90;;;;;;5053644;28;20645;-69
2022/08/26 02:55:50;;;;;;;4.35;0.68;;;16.20;99.90;;;;;;5045963;28;20561;-69
2022/08/26 02:58:21;;;;;;;3.80;0.80;;;16.20;99.90;;;;;;5052075;28;20222;-69
2022/08/26 03:00:52;;;;;;;5.40;1.08;;;16.20;99.90;;;;;;5044751;28;20210;-69
2022/08/26 03:03:24;;;;;;;3.95;0.60;;;16.40;99.90;;;;;;5052716;28;20198;-70
2022/08/26 03:05:55;;;;;;;2.60;0.60;;;16.50;99.90;;;;;;5052664;28;20189;-72
2022/08/26 03:08:25;;;;;;;1.50;0.52;;;16.40;99.90;;;;;;5052159;28;20228;-70
2022/08/26 03:10:58;;;;;;;2.92;0.50;;;16.30;99.90;;;;;;5045839;28;20553;-69
2022/08/26 03:13:29;;;;;;;4.72;0.40;;;16.40;99.90;;;;;;5053469;28;20193;-69
2022/08/26 03:16:01;;;;;;;5.43;0.70;;;16.40;99.90;;;;;;5049951;28;20566;-68
2022/08/26 03:18:32;;;;;;;4.55;0.70;;;16.50;99.90;;;;;;5051850;28;20228;-74
2022/08/26 03:21:08;;;;;;;5.65;0.80;;;16.40;99.90;;;;;;5051536;28;20201;-71
2022/08/26 03:23:39;;;;;;;1.45;0.50;;;16.50;99.90;;;;;;5050679;28;20201;-68
2022/08/26 03:26:15;;;;;;;3.30;0.68;;;16.70;99.90;;;;;;5053359;28;20557;-75
2022/08/26 03:31:29;;;;;;;2.30;0.60;;;17.20;99.90;;;;;;5047679;28;20653;-76
2022/08/26 03:34:01;;;;;;;5.30;0.60;;;17.40;99.90;;;;;;5049303;28;20197;-78
2022/08/26 03:36:32;;;;;;;3.83;0.60;;;17.30;99.90;;;;;;5052903;28;20196;-81
2022/08/26 03:39:03;;;;;;;5.85;0.68;;;17.10;99.90;;;;;;5050785;28;20236;-77
2022/08/26 03:41:36;;;;;;;3.92;0.73;;;17.10;99.90;;;;;;5052787;28;20190;-79
2022/08/26 03:44:08;;;;;;;4.47;0.57;;;17.20;99.90;;;;;;5049520;28;20588;-68
2022/08/26 03:46:43;;;;;;;2.78;0.52;;;17.40;99.90;;;;;;5050903;28;20206;-71
2022/08/26 03:49:13;;;;;;;2.15;0.40;;;17.60;99.90;;;;;;5048511;28;20226;-68
2022/08/26 03:51:44;;;;;;;3.53;0.50;;;17.60;99.90;;;;;;5048851;28;20198;-68
2022/08/26 03:54:15;;;;;;;3.83;0.73;;;17.80;99.90;;;;;;5049400;28;20561;-74
2022/08/26 03:56:47;;;;;;;5.90;0.50;;;17.80;99.90;;;;;;5048986;28;20547;-68
2022/08/26 03:59:18;;;;;;;3.47;0.73;;;17.60;99.90;;;;;;5043664;28;20201;-69
2022/08/26 04:01:49;;;;;;;2.15;0.60;;;17.40;99.90;;;;;;5051513;28;20205;-68
2022/08/26 04:04:20;;;;;;;2.92;0.60;;;17.10;99.90;;;;;;5048305;28;20205;-67
2022/08/26 04:06:51;;;;;;;2.42;0.40;;;17.20;99.90;;;;;;5046797;28;20202;-68
2022/08/26 04:09:22;;;;;;;3.28;0.35;;;17.20;99.90;;;;;;5046301;28;20616;-69
2022/08/26 04:11:56;;;;;;;4.43;0.80;;;17.10;99.90;;;;;;5047635;28;20198;-69
2022/08/26 04:14:28;;;;;;;3.88;0.65;;;17.10;99.90;;;;;;5040970;28;20194;-69
2022/08/26 04:16:59;;;;;;;6.45;0.57;;;17.00;99.90;;;;;;5046132;28;20268;-68
2022/08/26 04:19:30;;;;;;;3.28;0.70;;;17.00;99.90;;;;;;5048140;28;20193;-67
2022/08/26 04:22:01;;;;;;;2.20;0.60;;;16.80;99.90;;;;;;5042443;28;20573;-68
2022/08/26 04:24:32;;;;;;;3.78;0.60;;;16.70;99.90;;;;;;5044431;28;20198;-68
2022/08/26 04:27:05;;;;;;;4.80;0.70;;;16.60;99.90;;;;;;5044257;28;20193;-67
2022/08/26 04:29:36;;;;;;;2.17;0.43;;;16.60;99.90;;;;;;5048699;28;20208;-68
2022/08/26 04:32:07;;;;;;;2.20;0.65;;;16.60;99.90;;;;;;5048285;28;20548;-69
2022/08/26 04:34:38;;;;;;;7.05;0.85;;;16.60;99.90;;;;;;5044859;28;20613;-70
2022/08/26 04:37:09;;;;;;;3.10;1.00;;;16.50;99.90;;;;;;5042830;28;20213;-69
2022/08/26 04:39:40;;;;;;;3.40;0.82;;;16.50;99.90;;;;;;5039467;28;20226;-68
2022/08/26 04:42:14;;;;;;;5.35;0.60;;;16.40;99.90;;;;;;5044776;28;20260;-68
2022/08/26 04:44:45;;;;;;;5.78;0.70;;;16.40;99.90;;;;;;5041581;28;20228;-67
2022/08/26 04:47:15;;;;;;;4.82;0.90;;;16.40;99.90;;;;;;5042951;28;20197;-67
2022/08/26 04:49:46;;;;;;;3.17;0.80;;;16.40;99.90;;;;;;5045819;28;20217;-69
2022/08/26 04:52:17;;;;;;;5.55;1.20;;;16.30;99.90;;;;;;5046940;28;20244;-68
2022/08/26 04:54:48;;;;;;;3.78;0.80;;;16.30;99.90;;;;;;5044022;28;20522;-75
2022/08/26 04:57:22;;;;;;;4.03;0.73;;;16.30;99.90;;;;;;5048837;28;20650;-77
2022/08/26 04:59:52;;;;;;;4.68;1.02;;;16.40;99.90;;;;;;5047753;28;20197;-75
2022/08/26 05:02:23;;;;;;;2.83;0.60;;;16.40;99.90;;;;;;5044803;28;20194;-69
2022/08/26 05:04:54;;;;;;;3.10;0.60;;;16.40;99.90;;;;;;5047190;28;20656;-69
2022/08/26 05:07:25;;;;;;;2.40;0.60;;;16.50;99.90;;;;;;5052823;28;20186;-73
2022/08/26 05:09:55;;;;;;;1.20;0.40;;;16.60;99.90;;;;;;5043709;28;20204;-75
2022/08/26 05:12:29;;;;;;;2.10;0.45;;;16.60;99.90;;;;;;5041636;28;20212;-76
2022/08/26 05:15:00;;;;;;;0.38;0.30;;;16.60;99.90;;;;;;5045752;28;20197;-69
2022/08/26 05:17:32;;;;;;;1.67;0.40;;;16.60;99.90;;;;;;5046615;28;20205;-68
2022/08/26 05:20:02;;;;;;;2.13;0.68;;;16.70;99.90;;;;;;5048329;28;20226;-68
2022/08/26 05:22:33;;;;;;;1.30;0.40;;;16.70;99.90;;;;;;5044862;28;20194;-68
2022/08/26 05:25:04;;;;;;;3.50;0.68;;;16.60;99.90;;;;;;5044631;28;20198;-68
2022/08/26 05:27:37;;;;;;;1.17;0.50;;;16.50;99.90;;;;;;5046555;28;20637;-68
2022/08/26 05:30:08;;;;;;;2.15;0.50;;;16.30;99.90;;;;;;5043977;28;20194;-70
2022/08/26 05:32:39;;;;;;;3.47;0.68;;;16.20;99.90;;;;;;5042074;28;20761;-68
2022/08/26 05:35:10;;;;;;;5.63;0.73;;;16.10;99.90;;;;;;5052060;28;20230;-68
2022/08/26 05:37:41;;;;;;;3.42;0.60;;;16.00;99.90;;;;;;5047282;28;20224;-69
2022/08/26 05:40:12;;;;;;;3.35;0.60;;;16.00;99.90;;;;;;5046077;28;20222;-68
2022/08/26 05:42:47;;;;;;;4.05;0.70;;;15.90;99.90;;;;;;5046945;28;20552;-68
2022/08/26 05:45:22;;;;;;;3.42;0.80;;;15.80;99.90;;;;;;5044155;28;20582;-69
2022/08/26 05:47:54;;;;;;;3.83;0.70;;;15.70;99.90;;;;;;5049053;28;20282;-69
2022/08/26 05:50:25;;;;;;;2.92;0.70;;;15.60;99.90;;;;;;5046096;28;20233;-68
2022/08/26 05:52:57;;;;;;;1.17;0.60;;;15.50;99.90;;;;;;5047887;28;20273;-69
2022/08/26 05:55:28;;;;;;;2.92;0.70;;;15.40;99.90;;;;;;5047971;28;20183;-68
2022/08/26 05:58:01;;;;;;;2.40;0.80;;;15.30;99.90;;;;;;5047032;28;20749;-68
2022/08/26 06:00:32;;;;;;;5.53;0.73;;;15.20;99.90;;;;;;5046427;28;20186;-68
2022/08/26 06:03:03;;;;;;;2.42;0.60;;;15.10;99.90;;;;;;5046557;28;20210;-69
2022/08/26 06:05:33;;;;;;;2.40;0.65;;;15.10;99.90;;;;;;5045180;28;20249;-68
2022/08/26 06:08:14;;;;;;;1.88;0.52;;;15.10;99.90;;;;;;5045237;28;20583;-68
2022/08/26 06:10:52;;;;;;;2.92;0.40;;;15.00;99.90;;;;;;5046757;28;20194;-68
2022/08/26 06:13:26;;;;;;;2.92;0.60;;;15.00;99.90;;;;;;5045170;28;20182;-68
2022/08/26 06:15:58;;;;;;;3.30;0.60;;;14.90;99.90;;;;;;5046527;28;20196;-68
2022/08/26 06:18:33;;;;;;;2.47;0.63;;;14.90;99.90;;;;;;5044543;28;20221;-68
2022/08/26 06:21:12;;;;;;;3.03;0.60;;;14.80;99.90;;;;;;5042067;28;20577;-68
2022/08/26 06:26:30;;;;;;;3.28;1.02;;;14.70;99.90;;;;;;5044609;28;20321;-68
2022/08/26 06:29:03;;;;;;;3.88;0.70;;;14.70;99.90;;;;;;5042141;28;20645;-67
2022/08/26 06:31:35;;;;;;;7.65;0.90;;;14.70;99.90;;;;;;5042305;28;20221;-67
2022/08/26 06:34:07;;;;;;;4.25;0.77;;;14.70;99.90;;;;;;5042114;28;20181;-67
2022/08/26 06:36:38;;;;;;;6.80;0.90;;;14.70;99.90;;;;;;5042616;28;20957;-68
2022/08/26 06:39:10;;;;;;;4.05;0.90;;;14.80;99.90;;;;;;5045870;28;20241;-72
2022/08/26 06:41:43;;;;;;;4.70;0.75;;;14.80;99.90;;;;;;5043181;28;20194;-74
2022/08/26 06:44:16;;;;;;;2.92;0.77;;;14.70;99.90;;;;;;5046640;28;20724;-74
2022/08/26 06:46:47;;;;;;;5.43;0.70;;;14.70;99.90;;;;;;5045177;28;20540;-70
2022/08/26 06:49:18;;;;;;;4.30;0.80;;;14.70;99.90;;;;;;5044945;28;20210;-74
2022/08/26 06:51:49;;;;;;;4.68;0.90;;;14.70;99.90;;;;;;5045184;28;20193;-73
2022/08/26 06:54:20;;;;;;;5.10;0.80;;;14.70;99.90;;;;;;5043548;28;21516;-71
2022/08/26 06:56:51;;;;;;;4.78;0.80;;;14.70;99.90;;;;;;5043849;28;20186;-71
2022/08/26 06:59:23;;;;;;;3.25;0.60;;;14.70;99.90;;;;;;5042845;28;20254;-76
2022/08/26 07:01:54;;;;;;;4.72;0.65;;;14.80;99.90;;;;;;5042739;28;20653;-73
2022/08/26 07:04:26;;;;;;;3.28;0.55;;;14.80;99.90;;;;;;5042451;28;20197;-69
2022/08/26 07:06:57;;;;;;;4.00;0.88;;;14.80;99.90;;;;;;5046514;28;20279;-69
2022/08/26 07:09:31;;;;;;;6.47;0.70;;;14.80;99.90;;;;;;5041694;28;20284;-71
2022/08/26 07:12:03;;;;;;;3.58;0.80;;;14.80;99.90;;;;;;5043284;28;20244;-72
2022/08/26 07:14:36;;;;;;;4.53;0.90;;;14.80;99.90;;;;;;5040377;28;20194;-71
2022/08/26 07:17:08;;;;;;;3.42;0.80;;;14.90;99.90;;;;;;5039272;28;20186;-74
2022/08/26 07:19:39;;;;;;;2.88;0.75;;;14.80;99.90;;;;;;5040081;28;20297;-72
2022/08/26 07:22:10;;;;;;;3.83;0.70;;;14.80;99.90;;;;;;5042698;28;20194;-74
2022/08/26 07:24:42;;;;;;;2.60;0.65;;;14.70;99.90;;;;;;5044507;28;20208;-70
2022/08/26 07:27:15;;;;;;;1.92;0.57;;;14.70;99.90;;;;;;5044907;28;20259;-69
2022/08/26 07:29:48;;;;;;;5.28;0.70;;;14.60;99.90;;;;;;5045934;28;20211;-71
2022/08/26 07:32:21;;;;;;;3.58;0.68;;;14.60;99.90;;;;;;5044404;28;20627;-69
2022/08/26 07:34:52;;;;;;;3.85;0.70;;;14.50;99.90;;;;;;5042899;28;20208;-71
2022/08/26 07:37:23;;;;;;;2.85;0.65;;;14.50;99.90;;;;;;5039526;28;20190;-74
2022/08/26 07:39:54;;;;;;;5.05;0.68;;;14.50;99.90;;;;;;5040944;28;20238;-70
2022/08/26 07:42:25;;;;;;;3.50;1.10;;;14.50;99.90;;;;;;5045294;28;20200;-71
2022/08/26 07:44:57;;;;;;;3.60;0.90;;;14.50;99.90;;;;;;5047875;28;20193;-75
2022/08/26 07:47:28;;;;;;;3.72;1.08;;;14.40;99.90;;;;;;5046677;28;20197;-72
2022/08/26 07:50:00;;;;;;;5.03;0.90;;;14.40;99.90;;;;;;5046362;28;20229;-69
2022/08/26 07:52:31;;;;;;;1.98;0.80;;;14.40;99.90;;;;;;5045664;28;20190;-69
2022/08/26 07:55:04;;;;;;;3.83;0.80;;;14.40;99.90;;;;;;5045581;28;20546;-70
2022/08/26 07:57:35;;;;;;;5.43;0.80;;;14.40;99.90;;;;;;5045389;28;20591;-70
2022/08/26 08:00:09;;;;;;;4.50;1.00;;;14.40;99.90;;;;;;5044258;28;20209;-69
2022/08/26 08:02:40;;;;;;;6.22;1.00;;;14.40;99.90;;;;;;5045766;28;20208;-75
2022/08/26 08:05:12;;;;;;;5.40;1.27;;;14.40;99.90;;;;;;5046542;28;20199;-70
2022/08/26 08:07:43;;;;;;;9.75;1.50;;;14.40;99.90;;;;;;5049156;28;20562;-69
2022/08/26 08:10:15;;;;;;;4.75;1.30;;;14.40;99.90;;;;;;5047285;28;20213;-70
2022/08/26 08:12:46;;;;;;;5.80;1.25;;;14.40;99.90;;;;;;5047326;28;20198;-70
2022/08/26 08:15:20;;;;;;;6.72;1.45;;;14.30;99.90;;;;;;5048359;28;20820;-69
2022/08/26 08:17:51;;;;;;;6.55;1.52;;;14.30;99.90;;;;;;5051336;28;20208;-68
2022/08/26 08:20:23;;;;;;;4.63;1.33;;;14.40;99.90;;;;;;5049040;28;20271;-70
2022/08/26 08:22:55;;;;;;;6.95;1.40;;;14.30;99.90;;;;;;5050685;28;20197;-69
2022/08/26 08:25:26;;;;;;;4.65;1.15;;;14.30;99.90;;;;;;5050681;28;20195;-68
2022/08/26 08:27:56;;;;;;;7.25;1.48;;;14.40;99.90;;;;;;5048379;28;20212;-70
2022/08/26 08:30:29;;;;;;;7.47;1.17;;;14.30;99.90;;;;;;5049862;28;20194;-69
2022/08/26 08:33:00;;;;;;;3.15;1.08;;;14.30;99.90;;;;;;5052046;28;20200;-68
2022/08/26 08:35:31;;;;;;;6.82;0.90;;;14.30;99.90;;;;;;5049322;28;20197;-68
2022/08/26 08:38:02;;;;;;;2.28;0.75;;;14.30;99.90;;;;;;5050577;28;20193;-69
2022/08/26 08:40:32;;;;;;;2.35;0.75;;;14.30;99.90;;;;;;5049962;28;20229;-68
2022/08/26 08:43:06;;;;;;;3.38;0.82;;;14.30;99.90;;;;;;5047859;28;20199;-68
2022/08/26 08:45:41;;;;;;;4.82;0.85;;;14.30;99.90;;;;;;5048396;28;20570;-69
2022/08/26 08:48:28;;;;;;;3.33;0.80;;;14.30;99.90;;;;;;5052045;28;20189;-68
2022/08/26 08:51:04;;;;;;;2.20;0.80;;;14.30;99.90;;;;;;5044992;28;20197;-68
2022/08/26 08:53:37;;;;;;;3.80;0.98;;;14.30;99.90;;;;;;5048032;28;20193;-70
2022/08/26 08:56:19;;;;;;;4.65;0.85;;;14.30;99.90;;;;;;5047728;28;20206;-68
2022/08/26 08:58:56;;;;;;;4.00;0.80;;;14.20;99.90;;;;;;5050890;28;20217;-69
2022/08/26 09:01:38;;;;;;;2.63;0.75;;;14.30;99.90;;;;;;5047864;28;20197;-68
2022/08/26 09:04:25;;;;;;;2.60;0.82;;;14.20;99.90;;;;;;5048935;28;20197;-68
2022/08/26 09:06:59;;;;;;;2.85;0.90;;;14.20;99.90;;;;;;5048232;28;20197;-69
2022/08/26 09:09:36;;;;;;;2.17;0.90;;;14.20;99.90;;;;;;5045711;28;20190;-71
2022/08/26 09:12:11;;;;;;;4.93;0.90;;;14.20;99.90;;;;;;5045485;28;20572;-68
2022/08/26 09:14:42;;;;;;;4.45;2.53;;;14.20;99.90;;;;;;5049847;28;20201;-74
2022/08/26 09:17:25;;;;;;;4.28;0.90;;;14.20;99.90;;;;;;5048340;28;20543;-69
2022/08/26 09:20:00;;;;;;;3.08;0.77;;;14.10;99.90;;;;;;5048131;28;20221;-69
2022/08/26 09:22:33;;;;;;;2.65;0.73;;;14.20;99.90;;;;;;5049720;28;20205;-68
2022/08/26 09:25:12;;;;;;;2.00;0.70;;;14.10;99.90;;;;;;5048122;28;20208;-70
2022/08/26 09:27:45;;;;;;;1.35;0.63;;;14.10;99.90;;;;;;5046380;28;20193;-68
2022/08/26 09:30:21;;;;;;;1.67;0.60;;;14.10;99.90;;;;;;5049190;28;20212;-69
2022/08/26 09:33:01;;;;;;;1.20;0.60;;;14.10;99.90;;;;;;5046622;28;20197;-68
2022/08/26 09:35:34;;;;;;;1.80;0.60;;;14.10;99.90;;;;;;5048501;28;20255;-69
2022/08/26 09:38:21;;;;;;;2.38;0.75;;;14.00;99.90;;;;;;5051203;28;20204;-68
2022/08/26 09:40:58;;;;;;;3.33;0.80;;;14.00;99.90;;;;;;5049284;28;20209;-68
2022/08/26 09:43:29;;;;;;;2.28;1.00;;;14.00;99.90;;;;;;5051634;28;20197;-68
2022/08/26 09:46:19;;;;;;;4.97;1.10;;;14.00;99.90;;;;;;5052547;28;20533;-71
2022/08/26 09:48:51;;;;;;;2.67;0.95;;;14.00;99.90;;;;;;5049881;28;20198;-69
2022/08/26 09:51:32;;;;;;;3.95;1.38;;;14.00;99.90;;;;;;5049083;28;20194;-68
2022/08/26 09:54:04;;;;;;;2.92;0.90;;;13.90;99.90;;;;;;5047115;28;20194;-68
2022/08/26 09:56:36;;;;;;;4.70;1.10;;;13.90;99.90;;;;;;5052325;28;20205;-69
2022/08/26 09:59:10;;;;;;;4.70;1.20;;;13.90;99.90;;;;;;5053009;28;20214;-69
2022/08/26 10:01:43;;;;;;;2.83;1.23;;;13.90;99.90;;;;;;5052030;28;20667;-68
2022/08/26 10:04:21;;;;;;;4.38;1.02;;;13.90;99.90;;;;;;5052635;28;20194;-70
2022/08/26 10:06:58;;;;;;;3.95;1.20;;;13.90;99.90;;;;;;5053691;28;20201;-69
2022/08/26 10:09:30;;;;;;;3.20;0.98;;;13.90;99.90;;;;;;5049026;28;20285;-68
2022/08/26 10:12:04;;;;;;;3.88;0.88;;;13.90;99.90;;;;;;5050722;28;20197;-70
2022/08/26 10:14:40;;;;;;;4.97;1.20;;;13.90;99.90;;;;;;5050740;28;20197;-69
2022/08/26 10:17:18;;;;;;;2.95;0.90;;;13.90;99.90;;;;;;5051061;28;20197;-68
2022/08/26 10:19:55;;;;;;;3.03;0.70;;;13.90;99.90;;;;;;5052308;28;20229;-68
2022/08/26 10:22:36;;;;;;;2.17;0.77;;;13.90;99.90;;;;;;5048225;28;20189;-68
2022/08/26 10:25:11;;;;;;;1.85;0.85;;;13.90;99.90;;;;;;5049008;28;20630;-69
2022/08/26 10:27:48;;;;;;;6.35;1.00;;;13.90;99.90;;;;;;5045751;28;20552;-69
2022/08/26 10:30:22;;;;;;;3.22;0.90;;;13.90;99.90;;;;;;5051574;28;20194;-68
2022/08/26 10:32:57;;;;;;;4.50;1.08;;;13.90;99.90;;;;;;5052039;28;20197;-70
2022/08/26 10:35:30;;;;;;;3.20;1.20;;;13.90;99.90;;;;;;5052965;28;20193;-70
2022/08/26 10:38:04;;;;;;;1.63;0.90;;;13.90;99.90;;;;;;5049424;28;20567;-68
2022/08/26 10:40:46;;;;;;;2.45;1.10;;;13.90;99.90;;;;;;5052620;28;20710;-68
2022/08/26 10:43:22;;;;;;;6.55;1.65;;;13.80;99.90;;;;;;5047534;28;20189;-69
2022/08/26 10:45:56;;;;;;;7.28;1.38;;;13.90;99.90;;;;;;5053522;28;20197;-69
2022/08/26 10:48:31;;;;;;;3.70;1.10;;;13.80;99.90;;;;;;5053583;28;20198;-69
2022/08/26 10:51:05;;;;;;;3.92;1.30;;;13.90;99.90;;;;;;5046326;28;20284;-69
2022/08/26 10:53:47;;;;;;;1.95;0.80;;;13.90;99.90;;;;;;5053380;28;20198;-69
2022/08/26 10:56:40;;;;;;;3.38;1.02;;;13.80;99.90;;;;;;5052064;28;20193;-70
2022/08/26 10:59:19;;;;;;;2.13;0.88;;;13.90;99.90;;;;;;5053655;28;20580;-68
2022/08/26 11:01:55;;;;;;;1.38;0.60;;;13.80;99.90;;;;;;5053463;28;20196;-69
2022/08/26 11:04:43;;;;;;;2.75;0.88;;;13.80;99.90;;;;;;5053714;28;20197;-69
2022/08/26 11:07:44;;;;;;;2.70;0.90;;;13.80;99.90;;;;;;5045196;28;20186;-68
2022/08/26 11:10:46;;;;;;;1.75;0.65;;;13.80;99.90;;;;;;5045344;28;20198;-74
2022/08/26 11:13:17;;;;;;;3.63;0.80;;;13.80;99.90;;;;;;5053610;28;20197;-69
2022/08/26 11:16:11;;;;;;;2.22;0.68;;;13.80;99.90;;;;;;5053042;28;20198;-68
2022/08/26 11:18:45;;;;;;;1.67;0.60;;;13.80;99.90;;;;;;5052605;28;20262;-68
2022/08/26 11:22:04;;;;;;;2.95;0.93;;;13.70;99.90;;;;;;5051885;28;20217;-68
2022/08/26 11:25:10;;;;;;;2.83;0.80;;;13.70;99.90;;;;;;5050452;28;20286;-69
2022/08/26 11:28:06;;;;;;;3.40;1.17;;;13.70;99.90;;;;;;5050995;28;20201;-69
2022/08/26 11:30:46;;;;;;;3.67;0.80;;;13.70;99.90;;;;;;5045571;28;20299;-70
2022/08/26 11:33:48;;;;;;;2.10;0.80;;;13.70;99.90;;;;;;5047999;28;20699;-68
2022/08/26 11:36:41;;;;;;;2.80;0.93;;;13.70;99.90;;;;;;5052590;28;20243;-68
2022/08/26 11:39:27;;;;;;;2.10;0.70;;;13.70;99.90;;;;;;5052199;28;20236;-68
2022/08/26 11:42:01;;;;;;;1.77;0.70;;;13.60;99.90;;;;;;5051787;28;20661;-68
2022/08/26 11:44:41;;;;;;;3.22;0.80;;;13.60;99.90;;;;;;5052634;28;20190;-69
2022/08/26 11:47:13;;;;;;;3.88;0.90;;;13.60;99.90;;;;;;5051441;28;20667;-76
2022/08/26 11:49:44;;;;;;;2.97;0.98;;;13.60;99.90;;;;;;5045145;28;20225;-77
2022/08/26 11:52:18;;;;;;;2.97;1.00;;;13.60;99.90;;;;;;5046410;28;20197;-77
2022/08/26 11:55:06;;;;;;;5.18;1.00;;;13.50;99.90;;;;;;5051556;28;20201;-76
2022/08/26 11:57:43;;;;;;;2.35;0.90;;;13.50;99.90;;;;;;5050722;28;20209;-74
2022/08/26 12:00:22;;;;;;;3.78;1.05;;;13.50;99.90;;;;;;5051297;28;20217;-72
2022/08/26 12:02:54;;;;;;;2.25;1.08;;;13.50;99.90;;;;;;5042088;28;20189;-73
2022/08/26 12:05:30;;;;;;;3.10;0.93;;;13.50;99.90;;;;;;5050591;28;20627;-75
2022/08/26 12:08:05;;;;;;;4.07;1.00;;;13.50;99.90;;;;;;5047559;28;20197;-74
2022/08/26 12:10:36;;;;;;;2.75;0.93;;;13.50;99.90;;;;;;5051404;28;20197;-76
2022/08/26 12:13:08;;;;;;;3.15;0.90;;;13.50;99.90;;;;;;5052063;28;20193;-71
2022/08/26 12:15:41;;;;;;;2.65;0.70;;;13.50;99.90;;;;;;5051259;28;20201;-73
2022/08/26 12:18:22;;;;;;;2.97;0.90;;;13.40;99.90;;;;;;5049864;28;20620;-74
2022/08/26 12:20:55;;;;;;;5.00;0.90;;;13.50;99.90;;;;;;5051078;28;20282;-71
2022/08/26 12:23:36;;;;;;;3.95;0.90;;;13.40;99.90;;;;;;5048604;28;20308;-72
2022/08/26 12:26:09;;;;;;;2.65;0.70;;;13.40;99.90;;;;;;5046615;28;20198;-69
2022/08/26 12:28:46;;;;;;;2.80;0.50;;;13.40;99.90;;;;;;5051674;28;20194;-69
2022/08/26 12:31:25;;;;;;;1.60;0.57;;;13.40;99.90;;;;;;5050733;28;20200;-68
2022/08/26 12:33:57;;;;;;;2.15;0.55;;;13.40;99.90;;;;;;5049461;28;20193;-70
2022/08/26 12:36:32;;;;;;;2.97;0.70;;;13.40;99.90;;;;;;5050644;28;20197;-69
2022/08/26 12:39:12;;;;;;;2.67;0.80;;;13.40;99.90;;;;;;5050812;28;20246;-68
2022/08/26 12:41:49;;;;;;;1.98;0.82;;;13.40;99.90;;;;;;5047931;28;20209;-68
2022/08/26 12:44:43;;;;;;;3.42;0.80;;;13.40;99.90;;;;;;5049335;28;20211;-68
2022/08/26 12:47:25;;;;;;;5.22;1.00;;;13.40;99.90;;;;;;5049613;28;20208;-68
2022/08/26 12:50:04;;;;;;;2.60;0.90;;;13.30;99.90;;;;;;5042280;28;20224;-69
2022/08/26 12:52:41;;;;;;;2.97;1.05;;;13.40;99.90;;;;;;5044591;28;20194;-68
2022/08/26 12:55:24;;;;;;;2.22;0.98;;;13.30;99.90;;;;;;5049479;28;20652;-68
2022/08/26 12:58:13;;;;;;;1.95;1.10;;;13.30;99.90;;;;;;5044125;28;20199;-68
2022/08/26 13:00:46;;;;;;;3.20;1.25;;;13.30;99.90;;;;;;5048223;28;20263;-68
2022/08/26 13:03:43;;;;;;;3.75;1.15;;;13.30;99.90;;;;;;5049671;28;20193;-68
2022/08/26 13:06:28;;;;;;;2.42;1.20;;;13.30;99.90;;;;;;5050040;28;20208;-68
2022/08/26 13:09:00;;;;;;;2.60;1.20;;;13.30;99.90;;;;;;5045434;28;20656;-68
2022/08/26 13:11:33;;;;;;;2.05;1.48;;;13.30;99.90;;;;;;5051421;28;20641;-68
2022/08/26 13:14:08;;;;;;;2.70;1.60;;;13.30;99.90;;;;;;5052767;28;20202;-68
2022/08/26 13:16:40;;;;;;;2.05;1.17;;;13.30;99.90;;;;;;5054047;28;20201;-68
2022/08/26 13:19:14;;;;;;;2.65;1.50;;;13.30;99.90;;;;;;5054399;28;20204;-69
2022/08/26 13:21:47;;;;;;;2.00;1.42;;;13.30;99.90;;;;;;5055080;28;20561;-68
2022/08/26 13:24:21;;;;;;;2.22;1.30;;;13.30;99.90;;;;;;5055408;28;20190;-69
2022/08/26 13:26:52;;;;;;;2.80;1.42;;;13.30;99.90;;;;;;5053264;28;20607;-68